Strona główna
METAR-TAF:

METAR-TAF

Lotnisko :

Abidżan, Wybrzeże Kości Słoniowej

Port lotniczy Abidżan

Szerokość geograficzna: 05-15N, Długość geograficzna: 003-56W, wysokość: 7 m

Aktualna obserwacja pogody

Raport powstał 18 minut temu, godzina 11:30 UTC
Wiatr 8 kt od zachodnio-południowy zachód
Temperatura 31°C
Wilgotność 63%
Ciśnienie 1011 hPa
Widzialność: 7000 m
Mało chmury na wysokości 1200 ft

METAR: DIAP 181130Z 24008KT 7000 FEW012 31/23 Q1011 NOSIG

czas: 11:48 (11:48 UTC)

Prognoza

Raport powstał 48 minut temu, godzina 11:00 UTC
Prognoza ważna od 18 godzina 12 UTC do 19 godzina 18 UTC
Wiatr 11 kt od zachodnio-południowy zachód
Widzialność: 7000 m
Rozproszone chmury na wysokości 1200 ft
Przejściowo
od 18 godzina 18 UTC do 18 godzina 24 UTC
Przerywane chmury na wysokości 1200 ft
Przejściowo
od 19 godzina 05 UTC do 19 godzina 08 UTC
Widzialność: 4000 m
zamglenie

TAF: DIAP 181100Z 1812/1918 24011KT 7000 SCT012 TEMPO 1818/1824 BKN012 TEMPO 1905/1908 4000 BR

Obserwacja i prognoza pogody dla ponad 4000 lotnisk (raport METAR i TAF).

Dostępne stacje oznaczono żółtymi i czerwonymi punktami na mapie.

Najedź kursorem aby zobaczyć nazwę stacji.

Kliknij aby zobaczyć obserwacje i prognozy pogody.

Aby zmienić mapę: kliknij na zielony przycisk z czarnym krzyżykiem, aby powiększyć; na zielony przycisk z myślnikiem, aby pomniejszyć; na zielone strzałki, aby przejść do map sąsiednich.


METAR-TAF: